sensor_id;sensor_type;location;lat;lon;timestamp;pressure;altitude;pressure_sealevel;temperature
19568;BMP280;9930;49.240;8.548;2023-11-19T00:01:43;100374.19;;;13.06
19568;BMP280;9930;49.240;8.548;2023-11-19T00:04:09;100374.19;;;13.06
19568;BMP280;9930;49.240;8.548;2023-11-19T00:06:35;100376.94;;;13.14
19568;BMP280;9930;49.240;8.548;2023-11-19T00:09:01;100387.94;;;13.10
19568;BMP280;9930;49.240;8.548;2023-11-19T00:11:26;100386.25;;;13.10
19568;BMP280;9930;49.240;8.548;2023-11-19T00:13:52;100398.34;;;13.16
19568;BMP280;9930;49.240;8.548;2023-11-19T00:16:23;100389.91;;;13.18
19568;BMP280;9930;49.240;8.548;2023-11-19T00:18:52;100383.09;;;13.19
19568;BMP280;9930;49.240;8.548;2023-11-19T00:21:20;100382.25;;;13.20
19568;BMP280;9930;49.240;8.548;2023-11-19T00:23:47;100366.75;;;13.15
19568;BMP280;9930;49.240;8.548;2023-11-19T00:26:15;100369.41;;;13.18
19568;BMP280;9930;49.240;8.548;2023-11-19T00:28:41;100378.91;;;13.22
19568;BMP280;9930;49.240;8.548;2023-11-19T00:31:09;100380.72;;;13.26
19568;BMP280;9930;49.240;8.548;2023-11-19T00:33:35;100365.38;;;13.26
19568;BMP280;9930;49.240;8.548;2023-11-19T00:36:07;100371.28;;;13.24
19568;BMP280;9930;49.240;8.548;2023-11-19T00:38:34;100353.50;;;13.30
19568;BMP280;9930;49.240;8.548;2023-11-19T00:41:00;100350.13;;;13.31
19568;BMP280;9930;49.240;8.548;2023-11-19T00:43:28;100338.88;;;13.26
19568;BMP280;9930;49.240;8.548;2023-11-19T00:45:54;100326.94;;;13.26
19568;BMP280;9930;49.240;8.548;2023-11-19T00:48:19;100328.78;;;13.32
19568;BMP280;9930;49.240;8.548;2023-11-19T00:50:45;100347.66;;;13.36
19568;BMP280;9930;49.240;8.548;2023-11-19T00:53:11;100355.41;;;13.37
19568;BMP280;9930;49.240;8.548;2023-11-19T00:55:37;100354.47;;;13.35
19568;BMP280;9930;49.240;8.548;2023-11-19T00:58:06;100345.19;;;13.39
19568;BMP280;9930;49.240;8.548;2023-11-19T01:00:36;100357.16;;;13.40
19568;BMP280;9930;49.240;8.548;2023-11-19T01:03:01;100345.94;;;13.35
19568;BMP280;9930;49.240;8.548;2023-11-19T01:05:27;100354.69;;;13.43
19568;BMP280;9930;49.240;8.548;2023-11-19T01:07:54;100348.63;;;13.39
19568;BMP280;9930;49.240;8.548;2023-11-19T01:10:24;100345.34;;;13.45
19568;BMP280;9930;49.240;8.548;2023-11-19T01:12:51;100338.41;;;13.41
19568;BMP280;9930;49.240;8.548;2023-11-19T01:15:17;100324.84;;;13.45
19568;BMP280;9930;49.240;8.548;2023-11-19T01:17:45;100342.06;;;13.50
19568;BMP280;9930;49.240;8.548;2023-11-19T01:20:11;100341.13;;;13.47
19568;BMP280;9930;49.240;8.548;2023-11-19T01:22:39;100356.69;;;13.54
19568;BMP280;9930;49.240;8.548;2023-11-19T01:25:06;100343.72;;;13.48
19568;BMP280;9930;49.240;8.548;2023-11-19T01:27:36;100341.25;;;13.53
19568;BMP280;9930;49.240;8.548;2023-11-19T01:30:04;100361.09;;;13.60
19568;BMP280;9930;49.240;8.548;2023-11-19T01:32:31;100343.88;;;13.54
19568;BMP280;9930;49.240;8.548;2023-11-19T01:34:57;100344.78;;;13.56
19568;BMP280;9930;49.240;8.548;2023-11-19T01:37:25;100347.38;;;13.58
19568;BMP280;9930;49.240;8.548;2023-11-19T01:39:51;100351.81;;;13.65
19568;BMP280;9930;49.240;8.548;2023-11-19T01:42:16;100338.03;;;13.60
19568;BMP280;9930;49.240;8.548;2023-11-19T01:44:58;100356.16;;;13.68
19568;BMP280;9930;49.240;8.548;2023-11-19T01:47:26;100353.63;;;13.69
19568;BMP280;9930;49.240;8.548;2023-11-19T01:49:52;100352.69;;;13.66
19568;BMP280;9930;49.240;8.548;2023-11-19T01:52:23;100360.47;;;13.70
19568;BMP280;9930;49.240;8.548;2023-11-19T01:54:53;100344.28;;;13.71
19568;BMP280;9930;49.240;8.548;2023-11-19T01:57:23;100347.75;;;13.73
19568;BMP280;9930;49.240;8.548;2023-11-19T01:59:53;100336.66;;;13.74
19568;BMP280;9930;49.240;8.548;2023-11-19T02:02:19;100335.78;;;13.74
19568;BMP280;9930;49.240;8.548;2023-11-19T02:04:49;100339.25;;;13.76
19568;BMP280;9930;49.240;8.548;2023-11-19T02:07:15;100328.16;;;13.77
19568;BMP280;9930;49.240;8.548;2023-11-19T02:09:43;100331.63;;;13.79
19568;BMP280;9930;49.240;8.548;2023-11-19T02:12:10;100320.56;;;13.80
19568;BMP280;9930;49.240;8.548;2023-11-19T02:14:37;100316.28;;;13.80
19568;BMP280;9930;49.240;8.548;2023-11-19T02:17:04;100308.56;;;13.79
19568;BMP280;9930;49.240;8.548;2023-11-19T02:19:30;100312.00;;;13.79
19568;BMP280;9930;49.240;8.548;2023-11-19T02:21:56;100330.88;;;13.83
19568;BMP280;9930;49.240;8.548;2023-11-19T02:24:26;100340.34;;;13.85
19568;BMP280;9930;49.240;8.548;2023-11-19T02:27:08;100335.22;;;13.85
19568;BMP280;9930;49.240;8.548;2023-11-19T02:29:36;100330.88;;;13.83
19568;BMP280;9930;49.240;8.548;2023-11-19T02:32:06;100339.53;;;13.88
19568;BMP280;9930;49.240;8.548;2023-11-19T02:34:37;100318.19;;;13.89
19568;BMP280;9930;49.240;8.548;2023-11-19T02:37:04;100300.19;;;13.86
19568;BMP280;9930;49.240;8.548;2023-11-19T02:39:30;100306.28;;;13.91
19568;BMP280;9930;49.240;8.548;2023-11-19T02:42:01;100292.66;;;13.93
19568;BMP280;9930;49.240;8.548;2023-11-19T02:44:29;100287.53;;;13.93
19568;BMP280;9930;49.240;8.548;2023-11-19T02:46:56;100258.25;;;13.84
19568;BMP280;9930;49.240;8.548;2023-11-19T02:49:27;100285.03;;;13.97
19568;BMP280;9930;49.240;8.548;2023-11-19T02:51:53;100285.91;;;13.97
19568;BMP280;9930;49.240;8.548;2023-11-19T02:54:19;100293.63;;;13.99
19568;BMP280;9930;49.240;8.548;2023-11-19T02:56:48;100291.06;;;13.99
19568;BMP280;9930;49.240;8.548;2023-11-19T02:59:21;100303.06;;;14.00
19568;BMP280;9930;49.240;8.548;2023-11-19T03:01:54;100315.13;;;14.04
19568;BMP280;9930;49.240;8.548;2023-11-19T03:04:20;100303.91;;;14.00
19568;BMP280;9930;49.240;8.548;2023-11-19T03:06:48;100295.41;;;14.01
19568;BMP280;9930;49.240;8.548;2023-11-19T03:09:14;100290.31;;;14.03
19568;BMP280;9930;49.240;8.548;2023-11-19T03:11:40;100274.09;;;14.04
19568;BMP280;9930;49.240;8.548;2023-11-19T03:14:06;100281.94;;;14.11
19568;BMP280;9930;49.240;8.548;2023-11-19T03:16:34;100290.53;;;14.13
19568;BMP280;9930;49.240;8.548;2023-11-19T03:19:00;100277.75;;;14.15
19568;BMP280;9930;49.240;8.548;2023-11-19T03:21:31;100281.19;;;14.17
19568;BMP280;9930;49.240;8.548;2023-11-19T03:23:58;100268.31;;;14.14
19568;BMP280;9930;49.240;8.548;2023-11-19T03:26:27;100287.28;;;14.22
19568;BMP280;9930;49.240;8.548;2023-11-19T03:28:53;100281.31;;;14.23
19568;BMP280;9930;49.240;8.548;2023-11-19T03:31:20;100271.09;;;14.24
19568;BMP280;9930;49.240;8.548;2023-11-19T03:33:46;100274.56;;;14.26
19568;BMP280;9930;49.240;8.548;2023-11-19T03:36:12;100251.38;;;14.22
19568;BMP280;9930;49.240;8.548;2023-11-19T03:38:38;100254.00;;;14.25
19568;BMP280;9930;49.240;8.548;2023-11-19T03:41:14;100267.81;;;14.32
19568;BMP280;9930;49.240;8.548;2023-11-19T03:43:43;100250.56;;;14.24
19568;BMP280;9930;49.240;8.548;2023-11-19T03:46:19;100259.16;;;14.26
19568;BMP280;9930;49.240;8.548;2023-11-19T03:48:46;100256.63;;;14.28
19568;BMP280;9930;49.240;8.548;2023-11-19T03:51:12;100250.66;;;14.29
19568;BMP280;9930;49.240;8.548;2023-11-19T03:53:43;100259.34;;;14.36
19568;BMP280;9930;49.240;8.548;2023-11-19T03:56:09;100258.50;;;14.37
19568;BMP280;9930;49.240;8.548;2023-11-19T03:58:36;100252.56;;;14.39
19568;BMP280;9930;49.240;8.548;2023-11-19T04:01:04;100254.31;;;14.40
19568;BMP280;9930;49.240;8.548;2023-11-19T04:03:30;100261.13;;;14.40
19568;BMP280;9930;49.240;8.548;2023-11-19T04:05:56;100254.41;;;14.43
19568;BMP280;9930;49.240;8.548;2023-11-19T04:08:24;100242.31;;;14.39
19568;BMP280;9930;49.240;8.548;2023-11-19T04:10:50;100256.16;;;14.46
19568;BMP280;9930;49.240;8.548;2023-11-19T04:13:15;100251.06;;;14.47
19568;BMP280;9930;49.240;8.548;2023-11-19T04:15:42;100238.16;;;14.44
19568;BMP280;9930;49.240;8.548;2023-11-19T04:18:10;100241.59;;;14.45
19568;BMP280;9930;49.240;8.548;2023-11-19T04:20:39;100239.97;;;14.48
19568;BMP280;9930;49.240;8.548;2023-11-19T04:23:05;100234.00;;;14.49
19568;BMP280;9930;49.240;8.548;2023-11-19T04:25:30;100234.81;;;14.48
19568;BMP280;9930;49.240;8.548;2023-11-19T04:27:58;100241.84;;;14.57
19568;BMP280;9930;49.240;8.548;2023-11-19T04:30:28;100253.84;;;14.58
19568;BMP280;9930;49.240;8.548;2023-11-19T04:32:53;100243.47;;;14.53
19568;BMP280;9930;49.240;8.548;2023-11-19T04:35:19;100258.19;;;14.62
19568;BMP280;9930;49.240;8.548;2023-11-19T04:37:45;100260.75;;;14.62
19568;BMP280;9930;49.240;8.548;2023-11-19T04:40:11;100246.16;;;14.60
19568;BMP280;9930;49.240;8.548;2023-11-19T04:42:38;100247.13;;;14.66
19568;BMP280;9930;49.240;8.548;2023-11-19T04:45:07;100250.59;;;14.68
19568;BMP280;9930;49.240;8.548;2023-11-19T04:47:37;100251.50;;;14.70
19568;BMP280;9930;49.240;8.548;2023-11-19T04:50:07;100245.50;;;14.70
19568;BMP280;9930;49.240;8.548;2023-11-19T04:52:38;100242.84;;;14.65
19568;BMP280;9930;49.240;8.548;2023-11-19T04:55:10;100253.25;;;14.73
19568;BMP280;9930;49.240;8.548;2023-11-19T04:57:37;100242.97;;;14.73
19568;BMP280;9930;49.240;8.548;2023-11-19T05:00:05;100237.03;;;14.75
19568;BMP280;9930;49.240;8.548;2023-11-19T05:02:35;100241.28;;;14.73
19568;BMP280;9930;49.240;8.548;2023-11-19T05:05:04;100230.16;;;14.74
19568;BMP280;9930;49.240;8.548;2023-11-19T05:07:34;100235.34;;;14.76
19568;BMP280;9930;49.240;8.548;2023-11-19T05:10:00;100229.41;;;14.80
19568;BMP280;9930;49.240;8.548;2023-11-19T05:12:28;100233.75;;;14.84
19568;BMP280;9930;49.240;8.548;2023-11-19T05:14:54;100226.84;;;14.80
19568;BMP280;9930;49.240;8.548;2023-11-19T05:17:20;100224.28;;;14.80
19568;BMP280;9930;49.240;8.548;2023-11-19T05:19:46;100241.53;;;14.87
19568;BMP280;9930;49.240;8.548;2023-11-19T05:22:14;100232.16;;;14.89
19568;BMP280;9930;49.240;8.548;2023-11-19T05:24:41;100233.00;;;14.89
19568;BMP280;9930;49.240;8.548;2023-11-19T05:27:09;100234.75;;;14.92
19568;BMP280;9930;49.240;8.548;2023-11-19T05:29:39;100239.09;;;14.95
19568;BMP280;9930;49.240;8.548;2023-11-19T05:32:06;100239.97;;;14.97
19568;BMP280;9930;49.240;8.548;2023-11-19T05:34:35;100240.88;;;14.99
19568;BMP280;9930;49.240;8.548;2023-11-19T05:37:00;100231.41;;;14.96
19568;BMP280;9930;49.240;8.548;2023-11-19T05:39:28;100222.84;;;14.96
19568;BMP280;9930;49.240;8.548;2023-11-19T05:41:56;100231.50;;;15.02
19568;BMP280;9930;49.240;8.548;2023-11-19T05:44:23;100223.81;;;15.02
19568;BMP280;9930;49.240;8.548;2023-11-19T05:46:49;100235.84;;;15.05
19568;BMP280;9930;49.240;8.548;2023-11-19T05:49:15;100235.84;;;15.06
19568;BMP280;9930;49.240;8.548;2023-11-19T05:51:43;100240.16;;;15.07
19568;BMP280;9930;49.240;8.548;2023-11-19T05:54:09;100228.97;;;15.04
19568;BMP280;9930;49.240;8.548;2023-11-19T05:56:36;100234.13;;;15.05
19568;BMP280;9930;49.240;8.548;2023-11-19T05:59:03;100241.94;;;15.11
19568;BMP280;9930;49.240;8.548;2023-11-19T06:01:37;100240.22;;;15.10
19568;BMP280;9930;49.240;8.548;2023-11-19T06:04:11;100240.22;;;15.12
19568;BMP280;9930;49.240;8.548;2023-11-19T06:06:43;100239.50;;;15.19
19568;BMP280;9930;49.240;8.548;2023-11-19T06:09:11;100222.28;;;15.15
19568;BMP280;9930;49.240;8.548;2023-11-19T06:11:40;100214.59;;;15.15
19568;BMP280;9930;49.240;8.548;2023-11-19T06:14:08;100223.31;;;15.25
19568;BMP280;9930;49.240;8.548;2023-11-19T06:16:35;100221.63;;;15.27
19568;BMP280;9930;49.240;8.548;2023-11-19T06:19:02;100202.56;;;15.12
19568;BMP280;9930;49.240;8.548;2023-11-19T06:21:28;100235.38;;;15.30
19568;BMP280;9930;49.240;8.548;2023-11-19T06:23:58;100235.41;;;15.32
19568;BMP280;9930;49.240;8.548;2023-11-19T06:26:24;100238.03;;;15.35
19568;BMP280;9930;49.240;8.548;2023-11-19T06:28:50;100241.50;;;15.37
19568;BMP280;9930;49.240;8.548;2023-11-19T06:31:16;100244.91;;;15.37
19568;BMP280;9930;49.240;8.548;2023-11-19T06:33:44;100246.63;;;15.37
19568;BMP280;9930;49.240;8.548;2023-11-19T06:36:16;100237.19;;;15.36
19568;BMP280;9930;49.240;8.548;2023-11-19T06:38:44;100241.50;;;15.38
19568;BMP280;9930;49.240;8.548;2023-11-19T06:41:10;100245.88;;;15.44
19568;BMP280;9930;49.240;8.548;2023-11-19T06:43:38;100231.25;;;15.40
19568;BMP280;9930;49.240;8.548;2023-11-19T06:46:22;100233.00;;;15.42
19568;BMP280;9930;49.240;8.548;2023-11-19T06:48:50;100255.38;;;15.49
19568;BMP280;9930;49.240;8.548;2023-11-19T06:51:18;100248.53;;;15.50
19568;BMP280;9930;49.240;8.548;2023-11-19T06:53:45;100245.94;;;15.47
19568;BMP280;9930;49.240;8.548;2023-11-19T06:56:25;100248.56;;;15.51
19568;BMP280;9930;49.240;8.548;2023-11-19T06:58:51;100252.06;;;15.57
19568;BMP280;9930;49.240;8.548;2023-11-19T07:01:18;100252.03;;;15.53
19568;BMP280;9930;49.240;8.548;2023-11-19T07:03:47;100264.03;;;15.54
19568;BMP280;9930;49.240;8.548;2023-11-19T07:06:14;100271.81;;;15.58
19568;BMP280;9930;49.240;8.548;2023-11-19T07:08:44;100278.72;;;15.63
19568;BMP280;9930;49.240;8.548;2023-11-19T07:11:13;100275.31;;;15.64
19568;BMP280;9930;49.240;8.548;2023-11-19T07:13:42;100265.03;;;15.64
19568;BMP280;9930;49.240;8.548;2023-11-19T07:16:08;100264.16;;;15.62
19568;BMP280;9930;49.240;8.548;2023-11-19T07:18:40;100268.53;;;15.69
19568;BMP280;9930;49.240;8.548;2023-11-19T07:21:09;100277.97;;;15.70
19568;BMP280;9930;49.240;8.548;2023-11-19T07:23:37;100288.28;;;15.72
19568;BMP280;9930;49.240;8.548;2023-11-19T07:26:09;100286.59;;;15.74
19568;BMP280;9930;49.240;8.548;2023-11-19T07:28:37;100283.09;;;15.69
19568;BMP280;9930;49.240;8.548;2023-11-19T07:31:08;100295.19;;;15.76
19568;BMP280;9930;49.240;8.548;2023-11-19T07:33:34;100295.22;;;15.77
19568;BMP280;9930;49.240;8.548;2023-11-19T07:35:59;100287.41;;;15.71
19568;BMP280;9930;49.240;8.548;2023-11-19T07:38:25;100306.38;;;15.78
19568;BMP280;9930;49.240;8.548;2023-11-19T07:40:55;100301.19;;;15.75
19568;BMP280;9930;49.240;8.548;2023-11-19T07:43:23;100297.75;;;15.74
19568;BMP280;9930;49.240;8.548;2023-11-19T07:45:49;100308.97;;;15.79
19568;BMP280;9930;49.240;8.548;2023-11-19T07:48:16;100307.25;;;15.80
19568;BMP280;9930;49.240;8.548;2023-11-19T07:50:43;100305.56;;;15.80
19568;BMP280;9930;49.240;8.548;2023-11-19T07:53:11;100288.34;;;15.76
19568;BMP280;9930;49.240;8.548;2023-11-19T07:55:37;100291.81;;;15.78
19568;BMP280;9930;49.240;8.548;2023-11-19T07:58:04;100307.28;;;15.81
19568;BMP280;9930;49.240;8.548;2023-11-19T08:00:30;100305.59;;;15.83
19568;BMP280;9930;49.240;8.548;2023-11-19T08:02:58;100310.00;;;15.91
19568;BMP280;9930;49.240;8.548;2023-11-19T08:05:23;100298.78;;;15.87
19568;BMP280;9930;49.240;8.548;2023-11-19T08:07:50;100309.19;;;15.95
19568;BMP280;9930;49.240;8.548;2023-11-19T08:10:23;100301.47;;;15.95
19568;BMP280;9930;49.240;8.548;2023-11-19T08:12:50;100296.31;;;15.95
19568;BMP280;9930;49.240;8.548;2023-11-19T08:15:15;100311.03;;;16.03
19568;BMP280;9930;49.240;8.548;2023-11-19T08:17:42;100318.78;;;16.06
19568;BMP280;9930;49.240;8.548;2023-11-19T08:20:10;100312.81;;;16.09
19568;BMP280;9930;49.240;8.548;2023-11-19T08:22:37;100334.31;;;16.12
19568;BMP280;9930;49.240;8.548;2023-11-19T08:25:06;100328.38;;;16.18
19568;BMP280;9930;49.240;8.548;2023-11-19T08:27:35;100324.97;;;16.20
19568;BMP280;9930;49.240;8.548;2023-11-19T08:30:06;100316.47;;;16.25
19568;BMP280;9930;49.240;8.548;2023-11-19T08:32:34;100306.19;;;16.26
19568;BMP280;9930;49.240;8.548;2023-11-19T08:35:05;100296.72;;;16.24
19568;BMP280;9930;49.240;8.548;2023-11-19T08:37:31;100295.81;;;16.20
19568;BMP280;9930;49.240;8.548;2023-11-19T08:39:59;100300.19;;;16.26
19568;BMP280;9930;49.240;8.548;2023-11-19T08:42:25;100307.03;;;16.25
19568;BMP280;9930;49.240;8.548;2023-11-19T08:44:53;100298.38;;;16.20
19568;BMP280;9930;49.240;8.548;2023-11-19T08:47:25;100306.09;;;16.20
19568;BMP280;9930;49.240;8.548;2023-11-19T08:49:52;100298.34;;;16.17
19568;BMP280;9930;49.240;8.548;2023-11-19T08:52:18;100316.53;;;16.31
19568;BMP280;9930;49.240;8.548;2023-11-19T08:54:44;100320.03;;;16.36
19568;BMP280;9930;49.240;8.548;2023-11-19T08:57:10;100312.38;;;16.40
19568;BMP280;9930;49.240;8.548;2023-11-19T08:59:36;100308.94;;;16.40
19568;BMP280;9930;49.240;8.548;2023-11-19T09:02:08;100308.13;;;16.45
19568;BMP280;9930;49.240;8.548;2023-11-19T09:04:37;100315.06;;;16.51
19568;BMP280;9930;49.240;8.548;2023-11-19T09:07:04;100303.13;;;16.56
19568;BMP280;9930;49.240;8.548;2023-11-19T09:09:32;100317.91;;;16.69
19568;BMP280;9930;49.240;8.548;2023-11-19T09:12:01;100301.59;;;16.70
19568;BMP280;9930;49.240;8.548;2023-11-19T09:14:27;100318.06;;;16.84
19568;BMP280;9930;49.240;8.548;2023-11-19T09:16:55;100318.06;;;16.84
19568;BMP280;9930;49.240;8.548;2023-11-19T09:19:21;100322.47;;;16.95
19568;BMP280;9930;49.240;8.548;2023-11-19T09:21:47;100329.34;;;16.96
19568;BMP280;9930;49.240;8.548;2023-11-19T09:24:13;100322.44;;;16.93
19568;BMP280;9930;49.240;8.548;2023-11-19T09:26:39;100337.13;;;17.00
19568;BMP280;9930;49.240;8.548;2023-11-19T09:29:08;100325.09;;;16.99
19568;BMP280;9930;49.240;8.548;2023-11-19T09:31:35;100326.84;;;17.03
19568;BMP280;9930;49.240;8.548;2023-11-19T09:34:05;100326.88;;;17.06
19568;BMP280;9930;49.240;8.548;2023-11-19T09:36:37;100331.22;;;17.12
19568;BMP280;9930;49.240;8.548;2023-11-19T09:39:05;100338.25;;;17.27
19568;BMP280;9930;49.240;8.548;2023-11-19T09:41:36;100319.38;;;17.32
19568;BMP280;9930;49.240;8.548;2023-11-19T09:44:02;100332.38;;;17.44
19568;BMP280;9930;49.240;8.548;2023-11-19T09:46:29;100328.13;;;17.51
19568;BMP280;9930;49.240;8.548;2023-11-19T09:48:57;100314.38;;;17.49
19568;BMP280;9930;49.240;8.548;2023-11-19T09:51:23;100322.16;;;17.55
19568;BMP280;9930;49.240;8.548;2023-11-19T09:53:51;100324.75;;;17.57
19568;BMP280;9930;49.240;8.548;2023-11-19T09:56:18;100335.94;;;17.60
19568;BMP280;9930;49.240;8.548;2023-11-19T09:58:43;100327.38;;;17.64
19568;BMP280;9930;49.240;8.548;2023-11-19T10:01:09;100334.31;;;17.67
19568;BMP280;9930;49.240;8.548;2023-11-19T10:03:39;100317.13;;;17.69
19568;BMP280;9930;49.240;8.548;2023-11-19T10:06:09;100324.94;;;17.79
19568;BMP280;9930;49.240;8.548;2023-11-19T10:08:39;100337.00;;;17.82
19568;BMP280;9930;49.240;8.548;2023-11-19T10:11:10;100336.16;;;17.86
19568;BMP280;9930;49.240;8.548;2023-11-19T10:13:38;100343.09;;;17.92
19568;BMP280;9930;49.240;8.548;2023-11-19T10:16:17;100341.41;;;17.97
19568;BMP280;9930;49.240;8.548;2023-11-19T10:18:49;100339.72;;;18.03
19568;BMP280;9930;49.240;8.548;2023-11-19T10:21:20;100328.53;;;18.04
19568;BMP280;9930;49.240;8.548;2023-11-19T10:23:57;100332.03;;;18.12
19568;BMP280;9930;49.240;8.548;2023-11-19T10:26:26;100326.00;;;18.12
19568;BMP280;9930;49.240;8.548;2023-11-19T10:28:52;100333.75;;;18.10
19568;BMP280;9930;49.240;8.548;2023-11-19T10:31:20;100329.44;;;18.09
19568;BMP280;9930;49.240;8.548;2023-11-19T10:33:52;100323.41;;;18.09
19568;BMP280;9930;49.240;8.548;2023-11-19T10:36:18;100310.50;;;18.07
19568;BMP280;9930;49.240;8.548;2023-11-19T10:38:56;100310.50;;;18.06
19568;BMP280;9930;49.240;8.548;2023-11-19T10:41:32;100299.28;;;18.04
19568;BMP280;9930;49.240;8.548;2023-11-19T10:43:59;100308.75;;;18.03
19568;BMP280;9930;49.240;8.548;2023-11-19T10:49:07;100306.13;;;17.97
19568;BMP280;9930;49.240;8.548;2023-11-19T10:51:39;100299.25;;;17.99
19568;BMP280;9930;49.240;8.548;2023-11-19T10:54:09;100302.75;;;18.09
19568;BMP280;9930;49.240;8.548;2023-11-19T10:56:35;100298.47;;;18.14
19568;BMP280;9930;49.240;8.548;2023-11-19T10:59:04;100296.78;;;18.18
19568;BMP280;9930;49.240;8.548;2023-11-19T11:01:53;100283.88;;;18.21
19568;BMP280;9930;49.240;8.548;2023-11-19T11:04:25;100279.63;;;18.27
19568;BMP280;9930;49.240;8.548;2023-11-19T11:06:59;100291.72;;;18.37
19568;BMP280;9930;49.240;8.548;2023-11-19T11:09:30;100284.84;;;18.42
19568;BMP280;9930;49.240;8.548;2023-11-19T11:11:56;100276.28;;;18.59
19568;BMP280;9930;49.240;8.548;2023-11-19T11:14:26;100286.69;;;18.71
19568;BMP280;9930;49.240;8.548;2023-11-19T11:16:53;100275.50;;;18.78
19568;BMP280;9930;49.240;8.548;2023-11-19T11:19:47;100288.44;;;18.95
19568;BMP280;9930;49.240;8.548;2023-11-19T11:22:20;100280.72;;;19.04
19568;BMP280;9930;49.240;8.548;2023-11-19T11:25:13;100279.00;;;19.07
19568;BMP280;9930;49.240;8.548;2023-11-19T11:28:13;100276.41;;;19.23
19568;BMP280;9930;49.240;8.548;2023-11-19T11:31:03;100275.53;;;19.36
19568;BMP280;9930;49.240;8.548;2023-11-19T11:39:42;100256.56;;;19.46
19568;BMP280;9930;49.240;8.548;2023-11-19T11:45:08;100245.38;;;19.50
19568;BMP280;9930;49.240;8.548;2023-11-19T11:57:57;100235.88;;;19.40
19568;BMP280;9930;49.240;8.548;2023-11-19T12:00:37;100240.22;;;19.32
19568;BMP280;9930;49.240;8.548;2023-11-19T12:03:08;100237.63;;;19.27
19568;BMP280;9930;49.240;8.548;2023-11-19T12:05:41;100229.00;;;19.21
19568;BMP280;9930;49.240;8.548;2023-11-19T12:08:12;100227.28;;;19.18
19568;BMP280;9930;49.240;8.548;2023-11-19T12:10:49;100221.25;;;19.18
19568;BMP280;9930;49.240;8.548;2023-11-19T12:13:16;100234.19;;;19.25
19568;BMP280;9930;49.240;8.548;2023-11-19T12:18:28;100241.06;;;19.25
19568;BMP280;9930;49.240;8.548;2023-11-19T12:20:55;100214.34;;;19.15
19568;BMP280;9930;49.240;8.548;2023-11-19T12:23:22;100212.63;;;19.14
19568;BMP280;9930;49.240;8.548;2023-11-19T12:25:50;100210.91;;;19.10
19568;BMP280;9930;49.240;8.548;2023-11-19T12:28:17;100222.97;;;19.13
19568;BMP280;9930;49.240;8.548;2023-11-19T12:30:48;100227.28;;;19.17
19568;BMP280;9930;49.240;8.548;2023-11-19T12:33:16;100211.78;;;19.14
19568;BMP280;9930;49.240;8.548;2023-11-19T12:35:44;100208.34;;;19.15
19568;BMP280;9930;49.240;8.548;2023-11-19T12:38:25;100213.50;;;19.22
19568;BMP280;9930;49.240;8.548;2023-11-19T12:41:08;100204.88;;;19.32
19568;BMP280;9930;49.240;8.548;2023-11-19T12:43:37;100192.78;;;19.40
19568;BMP280;9930;49.240;8.548;2023-11-19T12:46:23;100197.06;;;19.49
19568;BMP280;9930;49.240;8.548;2023-11-19T12:48:50;100187.63;;;19.54
19568;BMP280;9930;49.240;8.548;2023-11-19T12:51:21;100185.00;;;19.63
19568;BMP280;9930;49.240;8.548;2023-11-19T12:53:51;100184.09;;;19.75
19568;BMP280;9930;49.240;8.548;2023-11-19T12:56:20;100180.63;;;19.79
19568;BMP280;9930;49.240;8.548;2023-11-19T12:58:47;100186.63;;;19.89
19568;BMP280;9930;49.240;8.548;2023-11-19T13:01:20;100171.09;;;19.89
19568;BMP280;9930;49.240;8.548;2023-11-19T13:03:48;100171.94;;;19.94
19568;BMP280;9930;49.240;8.548;2023-11-19T13:06:15;100184.00;;;20.01
19568;BMP280;9930;49.240;8.548;2023-11-19T13:08:43;100164.13;;;20.03
19568;BMP280;9930;49.240;8.548;2023-11-19T13:11:34;100168.47;;;19.99
19568;BMP280;9930;49.240;8.548;2023-11-19T13:14:06;100158.13;;;19.98
19568;BMP280;9930;49.240;8.548;2023-11-19T13:16:38;100166.75;;;20.00
19568;BMP280;9930;49.240;8.548;2023-11-19T13:19:05;100177.09;;;20.00
19568;BMP280;9930;49.240;8.548;2023-11-19T13:21:31;100188.31;;;20.02
19568;BMP280;9930;49.240;8.548;2023-11-19T13:24:00;100179.69;;;19.97
19568;BMP280;9930;49.240;8.548;2023-11-19T13:26:26;100171.09;;;19.93
19568;BMP280;9930;49.240;8.548;2023-11-19T13:28:53;100173.69;;;19.90
19568;BMP280;9930;49.240;8.548;2023-11-19T13:31:19;100161.63;;;19.89
19568;BMP280;9930;49.240;8.548;2023-11-19T13:33:45;100170.25;;;19.85
19568;BMP280;9930;49.240;8.548;2023-11-19T13:36:11;100161.66;;;19.79
19568;BMP280;9930;49.240;8.548;2023-11-19T13:38:37;100159.94;;;19.76
19568;BMP280;9930;49.240;8.548;2023-11-19T13:41:04;100161.69;;;19.72
19568;BMP280;9930;49.240;8.548;2023-11-19T13:43:31;100161.72;;;19.65
19568;BMP280;9930;49.240;8.548;2023-11-19T13:45:57;100170.34;;;19.62
19568;BMP280;9930;49.240;8.548;2023-11-19T13:48:28;100145.38;;;19.52
19568;BMP280;9930;49.240;8.548;2023-11-19T13:50:57;100152.25;;;19.47
19568;BMP280;9930;49.240;8.548;2023-11-19T13:53:24;100160.00;;;19.47
19568;BMP280;9930;49.240;8.548;2023-11-19T13:55:52;100147.09;;;19.36
19568;BMP280;9930;49.240;8.548;2023-11-19T13:58:18;100152.28;;;19.36
19568;BMP280;9930;49.240;8.548;2023-11-19T14:00:44;100152.28;;;19.33
19568;BMP280;9930;49.240;8.548;2023-11-19T14:03:12;100153.16;;;19.29
19568;BMP280;9930;49.240;8.548;2023-11-19T14:05:39;100148.84;;;19.21
19568;BMP280;9930;49.240;8.548;2023-11-19T14:08:07;100156.63;;;19.22
19568;BMP280;9930;49.240;8.548;2023-11-19T14:10:39;100157.47;;;19.18
19568;BMP280;9930;49.240;8.548;2023-11-19T14:13:10;100141.97;;;19.11
19568;BMP280;9930;49.240;8.548;2023-11-19T14:15:37;100146.28;;;19.12
19568;BMP280;9930;49.240;8.548;2023-11-19T14:18:05;100150.59;;;19.08
19568;BMP280;9930;49.240;8.548;2023-11-19T14:20:31;100147.16;;;19.00
19568;BMP280;9930;49.240;8.548;2023-11-19T14:22:57;100147.16;;;18.98
19568;BMP280;9930;49.240;8.548;2023-11-19T14:25:22;100166.13;;;18.96
19568;BMP280;9930;49.240;8.548;2023-11-19T14:27:49;100166.13;;;18.91
19568;BMP280;9930;49.240;8.548;2023-11-19T14:30:14;100172.16;;;18.89
19568;BMP280;9930;49.240;8.548;2023-11-19T14:32:43;100156.66;;;18.76
19568;BMP280;9930;49.240;8.548;2023-11-19T14:35:14;100154.91;;;18.72
19568;BMP280;9930;49.240;8.548;2023-11-19T14:37:40;100167.84;;;18.75
19568;BMP280;9930;49.240;8.548;2023-11-19T14:40:07;100175.59;;;18.72
19568;BMP280;9930;49.240;8.548;2023-11-19T14:42:37;100160.03;;;18.60